Terminal Aerodrome Forecast
Issued by NWS

Home | Current Version | Previous Version | Text Only | Print | Product List | Glossary On
Versions: 1 2 3 4 5 6 7 8 9 10 11 12 13 14 15 16 17 18 19 20 21 22 23 24 25 26 27 28 29 30 31 32
377
FTAK31 PAFA 191740
TAFAOM
TAF
PAOM 191740Z 1918/2018 35005KT P6SM -SHRA SCT050 BKN080 OVC110
     FM200300 34008KT P6SM SCT100 BKN180=

USA.gov is the U.S. government's official web portal to all federal, state and local government web resources and services.